Tallaght, Ireland
Current Conditions -  °F | °C
As of 4:00 PM on Tuesday 21 Oct 2014 (Local Time) from EIME Reporting Station
Rain Showers Rain Showers  
Wind Chill: 41°   Ceiling: Unl
Heat Index: 48°   Visibility: 6mi
Dew Point: 39°   Wind: 23mph
Humidity: 71%   Direction: 300°WNW
Pressure: 30.03"   Gusts: 39mph
Location:  53.29°N, 6.37°W
Report Text: EIME 211600Z 30020G34KT 9999 -SHRA FEW011 FEW016CB SCT028 09/04 Q1017
Loading
Personal Weather Stations






























Interactive Weather Map
Tropical Storm Tracking
New forecast layout! Learn more

10-Day Weather Forecast

Advertisements
Track Severe Weather on mobile